sensor_id;sensor_type;location;lat;lon;timestamp;temperature;humidity
6018;DHT22;3037;51.068;13.780;2023-11-21T00:02:22;9.00;99.90
6018;DHT22;3037;51.068;13.780;2023-11-21T00:04:48;9.00;99.90
6018;DHT22;3037;51.068;13.780;2023-11-21T00:07:14;9.10;99.90
6018;DHT22;3037;51.068;13.780;2023-11-21T00:09:40;9.10;99.90
6018;DHT22;3037;51.068;13.780;2023-11-21T00:12:10;9.00;99.90
6018;DHT22;3037;51.068;13.780;2023-11-21T00:14:38;9.10;99.90
6018;DHT22;3037;51.068;13.780;2023-11-21T00:17:04;9.10;99.90
6018;DHT22;3037;51.068;13.780;2023-11-21T00:19:31;9.10;99.90
6018;DHT22;3037;51.068;13.780;2023-11-21T00:21:56;9.10;99.90
6018;DHT22;3037;51.068;13.780;2023-11-21T00:24:23;9.10;99.90
6018;DHT22;3037;51.068;13.780;2023-11-21T00:26:50;9.20;99.90
6018;DHT22;3037;51.068;13.780;2023-11-21T00:29:15;9.20;99.90
6018;DHT22;3037;51.068;13.780;2023-11-21T00:31:43;9.10;99.90
6018;DHT22;3037;51.068;13.780;2023-11-21T00:34:08;9.10;99.90
6018;DHT22;3037;51.068;13.780;2023-11-21T00:36:34;9.00;99.90
6018;DHT22;3037;51.068;13.780;2023-11-21T00:39:00;9.20;99.90
6018;DHT22;3037;51.068;13.780;2023-11-21T00:41:28;9.10;99.90
6018;DHT22;3037;51.068;13.780;2023-11-21T00:43:54;9.10;99.90
6018;DHT22;3037;51.068;13.780;2023-11-21T00:46:20;9.20;99.90
6018;DHT22;3037;51.068;13.780;2023-11-21T00:48:46;9.30;99.90
6018;DHT22;3037;51.068;13.780;2023-11-21T00:51:11;9.30;99.90
6018;DHT22;3037;51.068;13.780;2023-11-21T00:53:37;9.30;99.90
6018;DHT22;3037;51.068;13.780;2023-11-21T00:56:03;9.30;99.90
6018;DHT22;3037;51.068;13.780;2023-11-21T00:58:28;9.30;99.90
6018;DHT22;3037;51.068;13.780;2023-11-21T01:00:55;9.30;99.90
6018;DHT22;3037;51.068;13.780;2023-11-21T01:03:21;9.30;99.90
6018;DHT22;3037;51.068;13.780;2023-11-21T01:05:47;9.30;99.90
6018;DHT22;3037;51.068;13.780;2023-11-21T01:08:14;9.20;99.90
6018;DHT22;3037;51.068;13.780;2023-11-21T01:10:40;9.20;99.90
6018;DHT22;3037;51.068;13.780;2023-11-21T01:13:06;9.30;99.90
6018;DHT22;3037;51.068;13.780;2023-11-21T01:15:32;9.30;99.90
6018;DHT22;3037;51.068;13.780;2023-11-21T01:17:58;9.30;99.90
6018;DHT22;3037;51.068;13.780;2023-11-21T01:20:24;9.30;99.90
6018;DHT22;3037;51.068;13.780;2023-11-21T01:22:49;9.20;99.90
6018;DHT22;3037;51.068;13.780;2023-11-21T01:25:15;9.40;99.90
6018;DHT22;3037;51.068;13.780;2023-11-21T01:27:42;9.30;99.90
6018;DHT22;3037;51.068;13.780;2023-11-21T01:30:08;9.30;99.90
6018;DHT22;3037;51.068;13.780;2023-11-21T01:32:36;9.40;99.90
6018;DHT22;3037;51.068;13.780;2023-11-21T01:35:02;9.40;99.90
6018;DHT22;3037;51.068;13.780;2023-11-21T01:37:27;9.30;99.90
6018;DHT22;3037;51.068;13.780;2023-11-21T01:39:54;9.20;99.90
6018;DHT22;3037;51.068;13.780;2023-11-21T01:42:20;9.30;99.90
6018;DHT22;3037;51.068;13.780;2023-11-21T01:44:46;9.30;99.90
6018;DHT22;3037;51.068;13.780;2023-11-21T01:47:12;9.30;99.90
6018;DHT22;3037;51.068;13.780;2023-11-21T01:49:38;9.30;99.90
6018;DHT22;3037;51.068;13.780;2023-11-21T01:52:04;9.30;99.90
6018;DHT22;3037;51.068;13.780;2023-11-21T01:54:31;9.30;99.90
6018;DHT22;3037;51.068;13.780;2023-11-21T01:57:00;9.30;99.90
6018;DHT22;3037;51.068;13.780;2023-11-21T01:59:36;9.30;99.90
6018;DHT22;3037;51.068;13.780;2023-11-21T02:02:03;9.30;99.90
6018;DHT22;3037;51.068;13.780;2023-11-21T02:04:30;9.30;99.90
6018;DHT22;3037;51.068;13.780;2023-11-21T02:06:57;9.40;99.90
6018;DHT22;3037;51.068;13.780;2023-11-21T02:09:28;9.40;99.90
6018;DHT22;3037;51.068;13.780;2023-11-21T02:11:55;9.40;99.90
6018;DHT22;3037;51.068;13.780;2023-11-21T02:14:21;9.30;99.90
6018;DHT22;3037;51.068;13.780;2023-11-21T02:16:50;9.40;99.90
6018;DHT22;3037;51.068;13.780;2023-11-21T02:19:20;9.40;99.90
6018;DHT22;3037;51.068;13.780;2023-11-21T02:21:52;9.50;99.90
6018;DHT22;3037;51.068;13.780;2023-11-21T02:24:21;9.40;99.90
6018;DHT22;3037;51.068;13.780;2023-11-21T02:26:50;9.40;99.90
6018;DHT22;3037;51.068;13.780;2023-11-21T02:29:20;9.50;99.90
6018;DHT22;3037;51.068;13.780;2023-11-21T02:31:48;9.50;99.90
6018;DHT22;3037;51.068;13.780;2023-11-21T02:34:17;9.40;99.90
6018;DHT22;3037;51.068;13.780;2023-11-21T02:36:44;9.50;99.90
6018;DHT22;3037;51.068;13.780;2023-11-21T02:39:12;9.50;99.90
6018;DHT22;3037;51.068;13.780;2023-11-21T02:41:38;9.40;99.90
6018;DHT22;3037;51.068;13.780;2023-11-21T02:44:05;9.40;99.90
6018;DHT22;3037;51.068;13.780;2023-11-21T02:46:32;9.40;99.90
6018;DHT22;3037;51.068;13.780;2023-11-21T02:48:59;9.30;99.90
6018;DHT22;3037;51.068;13.780;2023-11-21T02:51:25;9.20;99.90
6018;DHT22;3037;51.068;13.780;2023-11-21T02:53:50;9.20;99.90
6018;DHT22;3037;51.068;13.780;2023-11-21T02:56:16;9.10;99.90
6018;DHT22;3037;51.068;13.780;2023-11-21T02:58:42;9.00;99.90
6018;DHT22;3037;51.068;13.780;2023-11-21T03:01:09;8.90;99.90
6018;DHT22;3037;51.068;13.780;2023-11-21T03:03:36;10.10;99.90
6018;DHT22;3037;51.068;13.780;2023-11-21T03:06:06;8.70;99.90
6018;DHT22;3037;51.068;13.780;2023-11-21T03:08:32;8.60;99.90
6018;DHT22;3037;51.068;13.780;2023-11-21T03:10:58;8.50;99.90
6018;DHT22;3037;51.068;13.780;2023-11-21T03:13:23;8.50;99.90
6018;DHT22;3037;51.068;13.780;2023-11-21T03:15:49;8.50;99.90
6018;DHT22;3037;51.068;13.780;2023-11-21T03:18:15;8.40;99.90
6018;DHT22;3037;51.068;13.780;2023-11-21T03:20:40;8.40;99.90
6018;DHT22;3037;51.068;13.780;2023-11-21T03:23:06;8.40;99.90
6018;DHT22;3037;51.068;13.780;2023-11-21T03:25:32;8.40;99.90
6018;DHT22;3037;51.068;13.780;2023-11-21T03:27:57;8.30;99.90
6018;DHT22;3037;51.068;13.780;2023-11-21T03:30:23;8.30;99.90
6018;DHT22;3037;51.068;13.780;2023-11-21T03:32:49;8.20;99.90
6018;DHT22;3037;51.068;13.780;2023-11-21T03:35:14;8.20;99.90
6018;DHT22;3037;51.068;13.780;2023-11-21T03:37:40;8.30;99.90
6018;DHT22;3037;51.068;13.780;2023-11-21T03:40:07;8.40;99.90
6018;DHT22;3037;51.068;13.780;2023-11-21T03:42:34;8.30;99.90
6018;DHT22;3037;51.068;13.780;2023-11-21T03:45:00;8.20;99.90
6018;DHT22;3037;51.068;13.780;2023-11-21T03:47:27;8.20;99.90
6018;DHT22;3037;51.068;13.780;2023-11-21T03:49:53;8.20;99.90
6018;DHT22;3037;51.068;13.780;2023-11-21T03:52:18;8.20;99.90
6018;DHT22;3037;51.068;13.780;2023-11-21T03:54:44;8.10;99.90
6018;DHT22;3037;51.068;13.780;2023-11-21T03:57:10;8.10;99.90
6018;DHT22;3037;51.068;13.780;2023-11-21T03:59:36;8.00;99.90
6018;DHT22;3037;51.068;13.780;2023-11-21T04:02:04;8.00;99.90
6018;DHT22;3037;51.068;13.780;2023-11-21T04:04:30;8.00;99.90
6018;DHT22;3037;51.068;13.780;2023-11-21T04:06:55;8.00;99.90
6018;DHT22;3037;51.068;13.780;2023-11-21T04:09:21;7.90;99.90
6018;DHT22;3037;51.068;13.780;2023-11-21T04:11:50;8.00;99.90
6018;DHT22;3037;51.068;13.780;2023-11-21T04:14:16;8.00;99.90
6018;DHT22;3037;51.068;13.780;2023-11-21T04:16:42;8.00;99.90
6018;DHT22;3037;51.068;13.780;2023-11-21T04:19:08;8.10;99.90
6018;DHT22;3037;51.068;13.780;2023-11-21T04:21:36;8.00;99.90
6018;DHT22;3037;51.068;13.780;2023-11-21T04:24:01;8.10;99.90
6018;DHT22;3037;51.068;13.780;2023-11-21T04:26:27;8.10;99.90
6018;DHT22;3037;51.068;13.780;2023-11-21T04:28:52;8.10;99.90
6018;DHT22;3037;51.068;13.780;2023-11-21T04:31:18;8.10;99.90
6018;DHT22;3037;51.068;13.780;2023-11-21T04:33:43;8.10;99.90
6018;DHT22;3037;51.068;13.780;2023-11-21T04:36:10;8.10;99.90
6018;DHT22;3037;51.068;13.780;2023-11-21T04:38:36;8.10;99.90
6018;DHT22;3037;51.068;13.780;2023-11-21T04:41:01;8.00;99.90
6018;DHT22;3037;51.068;13.780;2023-11-21T04:43:27;8.00;99.90
6018;DHT22;3037;51.068;13.780;2023-11-21T04:45:54;8.10;99.90
6018;DHT22;3037;51.068;13.780;2023-11-21T04:48:20;8.00;99.90
6018;DHT22;3037;51.068;13.780;2023-11-21T04:50:45;8.00;99.90
6018;DHT22;3037;51.068;13.780;2023-11-21T04:53:11;8.10;99.90
6018;DHT22;3037;51.068;13.780;2023-11-21T04:55:39;8.20;99.90
6018;DHT22;3037;51.068;13.780;2023-11-21T04:58:05;8.20;99.90
6018;DHT22;3037;51.068;13.780;2023-11-21T05:00:30;8.20;99.90
6018;DHT22;3037;51.068;13.780;2023-11-21T05:02:56;8.30;99.90
6018;DHT22;3037;51.068;13.780;2023-11-21T05:05:22;8.40;99.90
6018;DHT22;3037;51.068;13.780;2023-11-21T05:07:47;8.40;99.90
6018;DHT22;3037;51.068;13.780;2023-11-21T05:10:14;8.40;99.90
6018;DHT22;3037;51.068;13.780;2023-11-21T05:12:41;8.50;99.90
6018;DHT22;3037;51.068;13.780;2023-11-21T05:15:08;8.50;99.90
6018;DHT22;3037;51.068;13.780;2023-11-21T05:17:39;8.60;99.90
6018;DHT22;3037;51.068;13.780;2023-11-21T05:20:08;8.60;99.90
6018;DHT22;3037;51.068;13.780;2023-11-21T05:22:36;8.70;99.90
6018;DHT22;3037;51.068;13.780;2023-11-21T05:25:02;8.60;99.90
6018;DHT22;3037;51.068;13.780;2023-11-21T05:27:29;8.60;99.90
6018;DHT22;3037;51.068;13.780;2023-11-21T05:29:55;8.60;99.90
6018;DHT22;3037;51.068;13.780;2023-11-21T05:32:20;8.50;99.90
6018;DHT22;3037;51.068;13.780;2023-11-21T05:34:46;8.50;99.90
6018;DHT22;3037;51.068;13.780;2023-11-21T05:37:12;8.50;99.90
6018;DHT22;3037;51.068;13.780;2023-11-21T05:39:38;8.60;99.90
6018;DHT22;3037;51.068;13.780;2023-11-21T05:42:04;8.70;99.90
6018;DHT22;3037;51.068;13.780;2023-11-21T05:44:30;8.60;99.90
6018;DHT22;3037;51.068;13.780;2023-11-21T05:46:55;8.60;99.90
6018;DHT22;3037;51.068;13.780;2023-11-21T05:49:23;8.60;99.90
6018;DHT22;3037;51.068;13.780;2023-11-21T05:51:48;8.70;99.90
6018;DHT22;3037;51.068;13.780;2023-11-21T05:54:14;8.60;99.90
6018;DHT22;3037;51.068;13.780;2023-11-21T05:56:39;8.60;99.90
6018;DHT22;3037;51.068;13.780;2023-11-21T05:59:05;8.70;99.90
6018;DHT22;3037;51.068;13.780;2023-11-21T06:01:31;8.70;99.90
6018;DHT22;3037;51.068;13.780;2023-11-21T06:03:57;8.70;99.90
6018;DHT22;3037;51.068;13.780;2023-11-21T06:06:22;8.70;99.90
6018;DHT22;3037;51.068;13.780;2023-11-21T06:08:50;8.70;99.90
6018;DHT22;3037;51.068;13.780;2023-11-21T06:11:15;8.80;99.90
6018;DHT22;3037;51.068;13.780;2023-11-21T06:13:41;8.80;99.90
6018;DHT22;3037;51.068;13.780;2023-11-21T06:16:08;8.60;99.90
6018;DHT22;3037;51.068;13.780;2023-11-21T06:18:33;8.50;99.90
6018;DHT22;3037;51.068;13.780;2023-11-21T06:21:00;8.60;99.90
6018;DHT22;3037;51.068;13.780;2023-11-21T06:23:26;8.50;99.90
6018;DHT22;3037;51.068;13.780;2023-11-21T06:25:51;8.60;99.90
6018;DHT22;3037;51.068;13.780;2023-11-21T06:28:18;8.90;99.90
6018;DHT22;3037;51.068;13.780;2023-11-21T06:30:43;8.90;99.90
6018;DHT22;3037;51.068;13.780;2023-11-21T06:33:10;8.80;99.90
6018;DHT22;3037;51.068;13.780;2023-11-21T06:35:36;8.70;99.90
6018;DHT22;3037;51.068;13.780;2023-11-21T06:38:02;8.60;99.90
6018;DHT22;3037;51.068;13.780;2023-11-21T06:40:28;8.60;99.90
6018;DHT22;3037;51.068;13.780;2023-11-21T06:42:53;8.70;99.90
6018;DHT22;3037;51.068;13.780;2023-11-21T06:45:19;8.70;99.90
6018;DHT22;3037;51.068;13.780;2023-11-21T06:47:45;8.80;99.90
6018;DHT22;3037;51.068;13.780;2023-11-21T06:50:11;8.80;99.90
6018;DHT22;3037;51.068;13.780;2023-11-21T06:52:37;8.70;99.90
6018;DHT22;3037;51.068;13.780;2023-11-21T06:55:03;8.70;99.90
6018;DHT22;3037;51.068;13.780;2023-11-21T06:57:28;8.90;99.90
6018;DHT22;3037;51.068;13.780;2023-11-21T06:59:54;8.90;99.90
6018;DHT22;3037;51.068;13.780;2023-11-21T07:02:19;8.80;99.90
6018;DHT22;3037;51.068;13.780;2023-11-21T07:04:45;8.90;99.90
6018;DHT22;3037;51.068;13.780;2023-11-21T07:07:11;8.90;99.90
6018;DHT22;3037;51.068;13.780;2023-11-21T07:09:37;8.80;99.90
6018;DHT22;3037;51.068;13.780;2023-11-21T07:12:03;8.90;99.90
6018;DHT22;3037;51.068;13.780;2023-11-21T07:14:31;9.00;99.90
6018;DHT22;3037;51.068;13.780;2023-11-21T07:16:57;9.00;99.90
6018;DHT22;3037;51.068;13.780;2023-11-21T07:19:23;8.90;99.90
6018;DHT22;3037;51.068;13.780;2023-11-21T07:21:48;8.90;99.90
6018;DHT22;3037;51.068;13.780;2023-11-21T07:24:16;8.90;99.90
6018;DHT22;3037;51.068;13.780;2023-11-21T07:26:41;9.00;99.90
6018;DHT22;3037;51.068;13.780;2023-11-21T07:29:08;9.00;99.90
6018;DHT22;3037;51.068;13.780;2023-11-21T07:31:34;8.90;99.90
6018;DHT22;3037;51.068;13.780;2023-11-21T07:34:00;9.20;99.90
6018;DHT22;3037;51.068;13.780;2023-11-21T07:36:26;10.10;99.90
6018;DHT22;3037;51.068;13.780;2023-11-21T07:38:51;9.60;17.60
6018;DHT22;3037;51.068;13.780;2023-11-21T07:41:18;9.40;99.90
6018;DHT22;3037;51.068;13.780;2023-11-21T07:43:44;9.40;99.90
6018;DHT22;3037;51.068;13.780;2023-11-21T07:46:11;9.50;99.90
6018;DHT22;3037;51.068;13.780;2023-11-21T07:48:38;9.30;99.90
6018;DHT22;3037;51.068;13.780;2023-11-21T07:51:04;9.20;99.90
6018;DHT22;3037;51.068;13.780;2023-11-21T07:53:30;9.30;99.90
6018;DHT22;3037;51.068;13.780;2023-11-21T07:55:56;9.30;99.90
6018;DHT22;3037;51.068;13.780;2023-11-21T07:58:22;9.60;99.90
6018;DHT22;3037;51.068;13.780;2023-11-21T08:00:49;9.70;83.10
6018;DHT22;3037;51.068;13.780;2023-11-21T08:03:15;9.70;99.90
6018;DHT22;3037;51.068;13.780;2023-11-21T08:05:41;9.70;65.90
6018;DHT22;3037;51.068;13.780;2023-11-21T08:08:07;9.70;99.90
6018;DHT22;3037;51.068;13.780;2023-11-21T08:10:33;9.70;69.80
6018;DHT22;3037;51.068;13.780;2023-11-21T08:12:58;9.70;99.90
6018;DHT22;3037;51.068;13.780;2023-11-21T08:15:24;9.60;92.80
6018;DHT22;3037;51.068;13.780;2023-11-21T08:17:49;9.70;99.90
6018;DHT22;3037;51.068;13.780;2023-11-21T08:20:15;9.70;91.50
6018;DHT22;3037;51.068;13.780;2023-11-21T08:22:42;9.60;99.90
6018;DHT22;3037;51.068;13.780;2023-11-21T08:25:08;9.60;99.90
6018;DHT22;3037;51.068;13.780;2023-11-21T08:27:34;9.50;99.90
6018;DHT22;3037;51.068;13.780;2023-11-21T08:30:03;9.30;99.90
6018;DHT22;3037;51.068;13.780;2023-11-21T08:32:29;9.40;99.90
6018;DHT22;3037;51.068;13.780;2023-11-21T08:34:57;9.50;99.90
6018;DHT22;3037;51.068;13.780;2023-11-21T08:37:23;9.50;99.90
6018;DHT22;3037;51.068;13.780;2023-11-21T08:39:49;9.60;99.90
6018;DHT22;3037;51.068;13.780;2023-11-21T08:42:15;9.40;99.90
6018;DHT22;3037;51.068;13.780;2023-11-21T08:44:40;9.50;99.90
6018;DHT22;3037;51.068;13.780;2023-11-21T08:47:06;10.20;99.90
6018;DHT22;3037;51.068;13.780;2023-11-21T08:49:32;9.30;99.90
6018;DHT22;3037;51.068;13.780;2023-11-21T08:51:58;9.30;99.90
6018;DHT22;3037;51.068;13.780;2023-11-21T08:54:25;9.50;99.90
6018;DHT22;3037;51.068;13.780;2023-11-21T08:56:52;9.60;99.90
6018;DHT22;3037;51.068;13.780;2023-11-21T08:59:17;9.60;99.90
6018;DHT22;3037;51.068;13.780;2023-11-21T09:01:43;9.40;99.90
6018;DHT22;3037;51.068;13.780;2023-11-21T09:04:08;9.30;99.90
6018;DHT22;3037;51.068;13.780;2023-11-21T09:06:34;9.30;99.90
6018;DHT22;3037;51.068;13.780;2023-11-21T09:09:00;9.30;99.90
6018;DHT22;3037;51.068;13.780;2023-11-21T09:11:26;9.40;99.90
6018;DHT22;3037;51.068;13.780;2023-11-21T09:13:56;9.20;99.90
6018;DHT22;3037;51.068;13.780;2023-11-21T09:16:23;9.30;99.90
6018;DHT22;3037;51.068;13.780;2023-11-21T09:18:48;9.20;99.90
6018;DHT22;3037;51.068;13.780;2023-11-21T09:21:14;9.30;99.90
6018;DHT22;3037;51.068;13.780;2023-11-21T09:23:39;9.30;99.90
6018;DHT22;3037;51.068;13.780;2023-11-21T09:26:05;9.10;99.90
6018;DHT22;3037;51.068;13.780;2023-11-21T09:28:31;9.20;99.90
6018;DHT22;3037;51.068;13.780;2023-11-21T09:30:56;9.20;99.90
6018;DHT22;3037;51.068;13.780;2023-11-21T09:33:22;9.10;99.90
6018;DHT22;3037;51.068;13.780;2023-11-21T09:35:50;9.20;99.90
6018;DHT22;3037;51.068;13.780;2023-11-21T09:38:16;9.20;99.90
6018;DHT22;3037;51.068;13.780;2023-11-21T09:40:42;9.20;99.90
6018;DHT22;3037;51.068;13.780;2023-11-21T09:43:11;9.20;99.90
6018;DHT22;3037;51.068;13.780;2023-11-21T09:45:45;9.20;99.90
6018;DHT22;3037;51.068;13.780;2023-11-21T09:48:11;9.20;99.90
6018;DHT22;3037;51.068;13.780;2023-11-21T09:50:39;9.20;99.90
6018;DHT22;3037;51.068;13.780;2023-11-21T09:53:25;9.20;99.90
6018;DHT22;3037;51.068;13.780;2023-11-21T09:55:53;9.20;99.90
6018;DHT22;3037;51.068;13.780;2023-11-21T09:58:20;9.20;99.90
6018;DHT22;3037;51.068;13.780;2023-11-21T10:00:48;9.10;99.90
6018;DHT22;3037;51.068;13.780;2023-11-21T10:03:14;9.00;99.90
6018;DHT22;3037;51.068;13.780;2023-11-21T10:05:42;9.10;99.90
6018;DHT22;3037;51.068;13.780;2023-11-21T10:08:09;9.20;99.90
6018;DHT22;3037;51.068;13.780;2023-11-21T10:10:36;9.20;99.90
6018;DHT22;3037;51.068;13.780;2023-11-21T10:13:03;8.90;99.90
6018;DHT22;3037;51.068;13.780;2023-11-21T10:15:34;9.00;99.90
6018;DHT22;3037;51.068;13.780;2023-11-21T10:18:05;9.10;99.90
6018;DHT22;3037;51.068;13.780;2023-11-21T10:20:32;8.70;99.90
6018;DHT22;3037;51.068;13.780;2023-11-21T10:23:03;8.60;99.90
6018;DHT22;3037;51.068;13.780;2023-11-21T10:25:30;8.60;99.90
6018;DHT22;3037;51.068;13.780;2023-11-21T10:28:00;8.60;99.90
6018;DHT22;3037;51.068;13.780;2023-11-21T10:30:37;8.50;99.90
6018;DHT22;3037;51.068;13.780;2023-11-21T10:33:03;8.30;99.90
6018;DHT22;3037;51.068;13.780;2023-11-21T10:35:40;8.30;99.90
6018;DHT22;3037;51.068;13.780;2023-11-21T10:38:08;8.40;99.90
6018;DHT22;3037;51.068;13.780;2023-11-21T10:40:38;8.50;61.60
6018;DHT22;3037;51.068;13.780;2023-11-21T10:43:09;8.40;35.50
6018;DHT22;3037;51.068;13.780;2023-11-21T10:45:37;8.40;88.80
6018;DHT22;3037;51.068;13.780;2023-11-21T10:48:08;8.40;93.00
6018;DHT22;3037;51.068;13.780;2023-11-21T10:50:34;8.20;88.30
6018;DHT22;3037;51.068;13.780;2023-11-21T10:53:05;8.00;99.90
6018;DHT22;3037;51.068;13.780;2023-11-21T10:55:32;8.10;99.90
6018;DHT22;3037;51.068;13.780;2023-11-21T10:58:02;8.00;99.90
6018;DHT22;3037;51.068;13.780;2023-11-21T11:00:33;8.10;99.90
6018;DHT22;3037;51.068;13.780;2023-11-21T11:03:00;8.20;99.90
6018;DHT22;3037;51.068;13.780;2023-11-21T11:05:27;8.20;99.90
6018;DHT22;3037;51.068;13.780;2023-11-21T11:08:08;8.10;99.90
6018;DHT22;3037;51.068;13.780;2023-11-21T11:10:34;8.10;99.90
6018;DHT22;3037;51.068;13.780;2023-11-21T11:13:00;8.10;27.00
6018;DHT22;3037;51.068;13.780;2023-11-21T11:15:27;8.20;24.80
6018;DHT22;3037;51.068;13.780;2023-11-21T11:17:54;8.30;1.00
6018;DHT22;3037;51.068;13.780;2023-11-21T11:20:24;8.40;1.00
6018;DHT22;3037;51.068;13.780;2023-11-21T11:23:12;8.50;1.00
6018;DHT22;3037;51.068;13.780;2023-11-21T11:31:35;8.00;1.00
6018;DHT22;3037;51.068;13.780;2023-11-21T11:34:23;7.90;1.00
6018;DHT22;3037;51.068;13.780;2023-11-21T11:37:02;7.70;1.00
6018;DHT22;3037;51.068;13.780;2023-11-21T11:39:36;8.00;1.00
6018;DHT22;3037;51.068;13.780;2023-11-21T11:42:05;7.90;1.00
6018;DHT22;3037;51.068;13.780;2023-11-21T11:47:25;7.90;1.00
6018;DHT22;3037;51.068;13.780;2023-11-21T11:50:10;7.70;1.00
6018;DHT22;3037;51.068;13.780;2023-11-21T11:52:46;7.40;1.00
6018;DHT22;3037;51.068;13.780;2023-11-21T11:55:13;7.30;91.40
6018;DHT22;3037;51.068;13.780;2023-11-21T11:57:40;7.60;1.00
6018;DHT22;3037;51.068;13.780;2023-11-21T12:00:44;7.60;1.00
6018;DHT22;3037;51.068;13.780;2023-11-21T12:03:10;7.40;76.40
6018;DHT22;3037;51.068;13.780;2023-11-21T12:05:36;7.60;1.00
6018;DHT22;3037;51.068;13.780;2023-11-21T12:08:05;7.60;1.00
6018;DHT22;3037;51.068;13.780;2023-11-21T12:10:35;7.70;1.00
6018;DHT22;3037;51.068;13.780;2023-11-21T12:15:28;7.50;1.00
6018;DHT22;3037;51.068;13.780;2023-11-21T12:17:56;7.60;28.50
6018;DHT22;3037;51.068;13.780;2023-11-21T12:20:23;8.10;52.30
6018;DHT22;3037;51.068;13.780;2023-11-21T12:22:51;7.90;1.00
6018;DHT22;3037;51.068;13.780;2023-11-21T12:25:19;7.40;1.00
6018;DHT22;3037;51.068;13.780;2023-11-21T12:27:45;7.10;1.00
6018;DHT22;3037;51.068;13.780;2023-11-21T12:30:12;7.20;47.00
6018;DHT22;3037;51.068;13.780;2023-11-21T12:32:43;6.90;1.00
6018;DHT22;3037;51.068;13.780;2023-11-21T12:35:09;7.00;77.70
6018;DHT22;3037;51.068;13.780;2023-11-21T12:37:40;7.00;9.00
6018;DHT22;3037;51.068;13.780;2023-11-21T12:40:10;7.20;39.70
6018;DHT22;3037;51.068;13.780;2023-11-21T12:42:45;7.10;1.00
6018;DHT22;3037;51.068;13.780;2023-11-21T12:47:44;7.20;8.10
6018;DHT22;3037;51.068;13.780;2023-11-21T12:50:10;7.20;10.50
6018;DHT22;3037;51.068;13.780;2023-11-21T12:52:44;7.30;98.20
6018;DHT22;3037;51.068;13.780;2023-11-21T12:55:19;7.30;57.00
6018;DHT22;3037;51.068;13.780;2023-11-21T12:57:54;7.30;1.00
6018;DHT22;3037;51.068;13.780;2023-11-21T13:00:28;7.20;45.10
6018;DHT22;3037;51.068;13.780;2023-11-21T13:02:58;7.30;17.30
6018;DHT22;3037;51.068;13.780;2023-11-21T13:05:32;7.20;1.00
6018;DHT22;3037;51.068;13.780;2023-11-21T13:08:02;7.10;1.00
6018;DHT22;3037;51.068;13.780;2023-11-21T13:10:30;7.00;1.00
6018;DHT22;3037;51.068;13.780;2023-11-21T13:13:00;7.00;1.00
6018;DHT22;3037;51.068;13.780;2023-11-21T13:15:29;6.80;1.00
6018;DHT22;3037;51.068;13.780;2023-11-21T13:17:57;6.70;83.30
6018;DHT22;3037;51.068;13.780;2023-11-21T13:20:23;6.80;92.80
6018;DHT22;3037;51.068;13.780;2023-11-21T13:22:56;6.80;99.90
6018;DHT22;3037;51.068;13.780;2023-11-21T13:25:27;6.90;99.90
6018;DHT22;3037;51.068;13.780;2023-11-21T13:27:57;6.90;99.90
6018;DHT22;3037;51.068;13.780;2023-11-21T13:30:23;6.80;99.90
6018;DHT22;3037;51.068;13.780;2023-11-21T13:32:53;6.80;99.90
6018;DHT22;3037;51.068;13.780;2023-11-21T13:35:25;6.70;99.90
6018;DHT22;3037;51.068;13.780;2023-11-21T13:38:07;6.80;99.90
6018;DHT22;3037;51.068;13.780;2023-11-21T13:40:35;6.70;99.90
6018;DHT22;3037;51.068;13.780;2023-11-21T13:43:08;6.70;99.90
6018;DHT22;3037;51.068;13.780;2023-11-21T13:45:36;6.60;99.90
6018;DHT22;3037;51.068;13.780;2023-11-21T13:48:02;6.70;99.90
6018;DHT22;3037;51.068;13.780;2023-11-21T13:50:27;6.70;90.90
6018;DHT22;3037;51.068;13.780;2023-11-21T13:53:01;6.60;46.20
6018;DHT22;3037;51.068;13.780;2023-11-21T13:55:41;6.60;50.00
6018;DHT22;3037;51.068;13.780;2023-11-21T13:58:07;6.60;2.40
6018;DHT22;3037;51.068;13.780;2023-11-21T14:00:37;6.50;9.80
6018;DHT22;3037;51.068;13.780;2023-11-21T14:03:12;6.40;31.40
6018;DHT22;3037;51.068;13.780;2023-11-21T14:05:47;6.40;1.00
6018;DHT22;3037;51.068;13.780;2023-11-21T14:08:18;6.30;11.70
6018;DHT22;3037;51.068;13.780;2023-11-21T14:10:45;6.30;24.00
6018;DHT22;3037;51.068;13.780;2023-11-21T14:13:19;6.40;1.00
6018;DHT22;3037;51.068;13.780;2023-11-21T14:15:48;6.40;1.00
6018;DHT22;3037;51.068;13.780;2023-11-21T14:18:16;6.30;1.00
6018;DHT22;3037;51.068;13.780;2023-11-21T14:20:43;6.30;1.00
6018;DHT22;3037;51.068;13.780;2023-11-21T14:23:10;6.30;1.00
6018;DHT22;3037;51.068;13.780;2023-11-21T14:25:36;6.30;1.00
6018;DHT22;3037;51.068;13.780;2023-11-21T14:28:03;6.20;1.00
6018;DHT22;3037;51.068;13.780;2023-11-21T14:30:30;6.30;1.00
6018;DHT22;3037;51.068;13.780;2023-11-21T14:32:58;6.20;99.90
6018;DHT22;3037;51.068;13.780;2023-11-21T14:35:23;6.20;1.00
6018;DHT22;3037;51.068;13.780;2023-11-21T14:37:49;6.10;1.00
6018;DHT22;3037;51.068;13.780;2023-11-21T14:40:15;6.10;99.90
6018;DHT22;3037;51.068;13.780;2023-11-21T14:42:42;5.90;1.00
6018;DHT22;3037;51.068;13.780;2023-11-21T14:45:08;5.80;1.00
6018;DHT22;3037;51.068;13.780;2023-11-21T14:47:37;5.90;99.90
6018;DHT22;3037;51.068;13.780;2023-11-21T14:50:04;5.90;29.50
6018;DHT22;3037;51.068;13.780;2023-11-21T14:52:49;5.80;99.90
6018;DHT22;3037;51.068;13.780;2023-11-21T14:55:24;5.80;1.00
6018;DHT22;3037;51.068;13.780;2023-11-21T14:58:09;5.60;24.60
6018;DHT22;3037;51.068;13.780;2023-11-21T15:00:38;5.70;99.90
6018;DHT22;3037;51.068;13.780;2023-11-21T15:03:11;5.60;1.00
6018;DHT22;3037;51.068;13.780;2023-11-21T15:05:50;5.60;1.00
6018;DHT22;3037;51.068;13.780;2023-11-21T15:08:15;5.40;1.00
6018;DHT22;3037;51.068;13.780;2023-11-21T15:10:51;5.40;99.90
6018;DHT22;3037;51.068;13.780;2023-11-21T15:13:21;5.60;1.00
6018;DHT22;3037;51.068;13.780;2023-11-21T15:15:51;5.60;99.90
6018;DHT22;3037;51.068;13.780;2023-11-21T15:18:20;5.50;99.90
6018;DHT22;3037;51.068;13.780;2023-11-21T15:20:46;5.50;99.90
6018;DHT22;3037;51.068;13.780;2023-11-21T15:23:11;5.80;1.00
6018;DHT22;3037;51.068;13.780;2023-11-21T15:25:38;5.60;99.90
6018;DHT22;3037;51.068;13.780;2023-11-21T15:28:04;5.50;1.00
6018;DHT22;3037;51.068;13.780;2023-11-21T15:30:31;5.50;99.90
6018;DHT22;3037;51.068;13.780;2023-11-21T15:32:58;5.40;1.00
6018;DHT22;3037;51.068;13.780;2023-11-21T15:35:24;5.40;99.90
6018;DHT22;3037;51.068;13.780;2023-11-21T15:37:49;5.40;99.90
6018;DHT22;3037;51.068;13.780;2023-11-21T15:40:16;5.40;1.00
6018;DHT22;3037;51.068;13.780;2023-11-21T15:42:42;5.40;77.20
6018;DHT22;3037;51.068;13.780;2023-11-21T15:45:09;5.40;99.90
6018;DHT22;3037;51.068;13.780;2023-11-21T15:47:35;5.40;1.00
6018;DHT22;3037;51.068;13.780;2023-11-21T15:50:04;5.40;1.00
6018;DHT22;3037;51.068;13.780;2023-11-21T15:52:33;5.40;1.00
6018;DHT22;3037;51.068;13.780;2023-11-21T15:54:59;5.40;42.40
6018;DHT22;3037;51.068;13.780;2023-11-21T15:57:25;5.50;99.90
6018;DHT22;3037;51.068;13.780;2023-11-21T15:59:50;5.30;1.00
6018;DHT22;3037;51.068;13.780;2023-11-21T16:02:16;5.40;1.00
6018;DHT22;3037;51.068;13.780;2023-11-21T16:04:41;5.40;1.00
6018;DHT22;3037;51.068;13.780;2023-11-21T16:07:08;5.40;1.00
6018;DHT22;3037;51.068;13.780;2023-11-21T16:09:35;5.50;48.10
6018;DHT22;3037;51.068;13.780;2023-11-21T16:12:05;5.50;99.90
6018;DHT22;3037;51.068;13.780;2023-11-21T16:14:32;5.50;7.10
6018;DHT22;3037;51.068;13.780;2023-11-21T16:17:02;5.50;1.00
6018;DHT22;3037;51.068;13.780;2023-11-21T16:19:28;5.30;1.00
6018;DHT22;3037;51.068;13.780;2023-11-21T16:21:53;5.20;1.00